Time;durP1;ratioP1;P1;durP2;ratioP2;P2;SDS_P1;SDS_P2;PMS_P1;PMS_P2;Temp;Humidity;BMP_temperature;BMP_pressure;BME280_temperature;BME280_humidity;BME280_pressure;Samples;Min_cycle;Max_cycle;Signal;HPM_P1;HPM_P2
2022/01/30 00:01:01;;;;;;;;;5.00;5.00;;;;;11.44;95.74;102468.53;4846848;29;45816;-81
2022/01/30 00:03:26;;;;;;;;;4.00;4.00;;;;;11.48;95.81;102472.25;4845262;29;45465;-81
2022/01/30 00:05:52;;;;;;;;;5.67;4.33;;;;;11.49;95.69;102458.06;4846663;29;45374;-80
2022/01/30 00:08:19;;;;;;;;;4.67;4.67;;;;;11.54;95.75;102475.13;4850047;29;45594;-81
2022/01/30 00:10:46;;;;;;;;;6.33;5.00;;;;;11.47;95.72;102471.31;4849817;29;46431;-82
2022/01/30 00:13:15;;;;;;;;;4.00;4.00;;;;;11.56;95.68;102479.66;4831561;29;45422;-82
2022/01/30 00:18:20;;;;;;;;;7.33;5.00;;;;;11.61;95.49;102471.84;4851180;29;45426;-81
2022/01/30 00:20:59;;;;;;;;;6.33;6.33;;;;;11.63;95.32;102470.13;4849034;29;45404;-82
2022/01/30 00:23:26;;;;;;;;;4.33;4.33;;;;;11.60;95.43;102470.94;4848623;29;45309;-82
2022/01/30 00:25:54;;;;;;;;;7.33;7.00;;;;;11.62;95.42;102473.66;4832800;29;45690;-81
2022/01/30 00:28:24;;;;;;;;;3.67;3.67;;;;;11.62;95.53;102468.34;4849610;29;45487;-81
2022/01/30 00:30:50;;;;;;;;;5.00;5.00;;;;;11.61;95.60;102455.84;4830578;29;48083;-81
2022/01/30 00:33:15;;;;;;;;;6.33;4.67;;;;;11.57;95.44;102454.84;4844863;29;45396;-81
2022/01/30 00:35:41;;;;;;;;;5.67;4.00;;;;;11.56;95.50;102458.34;4829661;29;44858;-81
2022/01/30 00:38:11;;;;;;;;;9.33;6.33;;;;;11.52;95.64;102451.09;4829989;29;45532;-81
2022/01/30 00:40:37;;;;;;;;;5.00;5.00;;;;;11.49;95.69;102466.03;4829944;29;47869;-81
2022/01/30 00:43:04;;;;;;;;;10.00;6.00;;;;;11.45;95.73;102469.44;4830565;29;45506;-81
2022/01/30 00:45:29;;;;;;;;;6.67;4.33;;;;;11.38;95.88;102453.22;4829707;29;45772;-81
2022/01/30 00:47:55;;;;;;;;;7.33;4.67;;;;;11.36;95.90;102462.91;4832886;29;45349;-81
2022/01/30 00:50:20;;;;;;;;;5.67;4.00;;;;;11.29;95.93;102447.56;4848286;29;46200;-81
2022/01/30 00:52:50;;;;;;;;;4.00;4.00;;;;;11.26;95.78;102452.75;4832120;29;45473;-81
2022/01/30 00:55:16;;;;;;;;;7.67;6.00;;;;;11.12;95.93;102435.34;4832796;29;45536;-81
2022/01/30 00:57:48;;;;;;;;;4.00;4.00;;;;;11.10;96.06;102445.03;4848988;29;45758;-81
2022/01/30 01:00:15;;;;;;;;;5.00;3.67;;;;;11.00;96.18;102449.06;4847630;29;45943;-81
2022/01/30 01:02:41;;;;;;;;;4.00;4.00;;;;;10.93;96.52;102447.94;4847086;29;45459;-81
2022/01/30 01:05:06;;;;;;;;;8.33;5.00;;;;;10.87;97.00;102447.69;4846711;29;45706;-82
2022/01/30 01:07:34;;;;;;;;;4.33;4.33;;;;;10.88;96.86;102441.50;4847611;29;45716;-81
2022/01/30 01:10:07;;;;;;;;;5.00;5.00;;;;;10.85;96.85;102438.72;4831311;29;47010;-81
2022/01/30 01:23:28;;;;;;;;;5.67;5.67;;;;;10.93;96.87;102428.41;4848247;29;45783;-80
2022/01/30 01:25:55;;;;;;;;;4.33;3.67;;;;;10.99;96.71;102428.63;4832758;29;45494;-80
2022/01/30 01:28:20;;;;;;;;;7.00;5.00;;;;;11.01;96.62;102429.59;4849790;29;45530;-81
2022/01/30 01:31:03;;;;;;;;;9.33;7.67;;;;;11.10;96.62;102429.94;4849856;29;47216;-80
2022/01/30 01:33:53;;;;;;;;;7.33;4.67;;;;;11.07;96.34;102410.28;4849907;29;45842;-80
2022/01/30 01:36:14;;;;;;;;;7.00;7.00;;;;;11.14;96.22;102412.34;4850297;29;45591;-81
2022/01/30 01:38:40;;;;;;;;;9.00;7.00;;;;;11.12;96.11;102406.03;4834411;29;45540;-80
2022/01/30 01:41:05;;;;;;;;;11.33;10.00;;;;;11.19;96.01;102414.34;4850264;29;45810;-80
2022/01/30 01:43:34;;;;;;;;;9.33;5.00;;;;;11.20;96.13;102415.22;4834121;29;45749;-81
2022/01/30 01:46:00;;;;;;;;;7.67;7.00;;;;;11.11;96.34;102412.19;4848974;29;45495;-80
2022/01/30 01:48:33;;;;;;;;;10.33;9.00;;;;;11.23;96.14;102419.75;4848205;29;45477;-81
2022/01/30 01:51:16;;;;;;;;;8.00;7.00;;;;;11.22;95.89;102418.88;4848347;29;46512;-81
2022/01/30 01:53:43;;;;;;;;;9.00;8.00;;;;;11.25;95.71;102416.34;4831296;29;45459;-81
2022/01/30 01:56:08;;;;;;;;;9.00;7.67;;;;;11.29;95.91;102415.59;4848641;29;45491;-81
2022/01/30 01:58:34;;;;;;;;;7.00;7.00;;;;;11.34;95.78;102429.97;4848419;29;45489;-81
2022/01/30 02:04:21;;;;;;;;;7.33;7.33;;;;;11.26;95.49;102423.47;4848327;29;45540;-81
2022/01/30 02:06:47;;;;;;;;;7.33;7.00;;;;;11.25;95.56;102411.00;4847312;29;45418;-81
2022/01/30 02:09:13;;;;;;;;;8.67;7.67;;;;;11.28;95.53;102429.75;4831694;29;45329;-82
2022/01/30 02:11:43;;;;;;;;;9.00;9.00;;;;;11.26;95.37;102422.56;4830733;29;47087;-80
2022/01/30 02:27:47;;;;;;;;;7.33;5.33;;;;;11.23;95.37;102404.72;4847902;29;45736;-81
2022/01/30 02:30:20;;;;;;;;;7.67;5.67;;;;;11.18;95.06;102408.94;4848238;29;45520;-80
2022/01/30 02:32:47;;;;;;;;;8.00;5.00;;;;;11.11;95.70;102405.16;4831818;29;46977;-80
2022/01/30 02:35:13;;;;;;;;;9.33;9.00;;;;;11.13;95.47;102419.44;4830668;29;45545;-80
2022/01/30 02:37:39;;;;;;;;;7.00;7.00;;;;;11.12;95.49;102414.03;4831444;29;45491;-80
2022/01/30 02:40:09;;;;;;;;;10.67;9.33;;;;;11.08;95.80;102421.00;4831454;29;45788;-80
2022/01/30 02:42:43;;;;;;;;;12.33;8.00;;;;;10.97;95.69;102412.59;4831070;29;45943;-81
2022/01/30 02:45:11;;;;;;;;;8.00;4.67;;;;;11.00;95.85;102412.69;4829826;29;45450;-81
2022/01/30 02:50:16;;;;;;;;;5.00;5.00;;;;;11.04;95.70;102424.38;4849141;29;45403;-81
2022/01/30 02:52:44;;;;;;;;;8.00;8.00;;;;;10.94;95.51;102408.91;4832897;29;48093;-81
2022/01/30 02:55:12;;;;;;;;;8.33;8.33;;;;;10.99;95.92;102410.00;4831494;29;45873;-81
2022/01/30 02:57:38;;;;;;;;;6.00;5.00;;;;;10.89;95.86;102418.47;4832010;29;45427;-81
2022/01/30 03:00:07;;;;;;;;;10.33;9.33;;;;;10.91;96.04;102423.00;4832810;29;45700;-81
2022/01/30 03:02:34;;;;;;;;;9.33;9.00;;;;;10.92;96.06;102423.91;4846896;29;46608;-81
2022/01/30 03:04:59;;;;;;;;;11.33;8.67;;;;;10.90;96.16;102423.84;4829726;29;45659;-82
2022/01/30 03:07:25;;;;;;;;;10.00;9.00;;;;;10.91;96.32;102423.00;4846594;29;45810;-82
2022/01/30 03:09:50;;;;;;;;;9.00;8.00;;;;;10.82;96.32;102411.97;4830429;29;45490;-82
2022/01/30 03:12:16;;;;;;;;;9.33;9.33;;;;;10.94;96.16;102431.09;4829432;29;47799;-82
2022/01/30 03:14:42;;;;;;;;;14.00;13.00;;;;;10.94;96.00;102435.53;4846565;29;45394;-82
2022/01/30 03:17:08;;;;;;;;;10.00;9.67;;;;;10.94;96.18;102427.53;4847411;29;45643;-82
2022/01/30 03:19:33;;;;;;;;;13.00;11.33;;;;;10.89;96.12;102416.72;4848276;29;45368;-81
2022/01/30 03:21:58;;;;;;;;;8.67;8.67;;;;;10.89;96.12;102419.38;4848731;29;46242;-82
2022/01/30 03:24:24;;;;;;;;;9.33;9.33;;;;;10.91;96.13;102428.31;4831168;29;44759;-81
2022/01/30 03:26:50;;;;;;;;;11.00;11.00;;;;;10.97;96.11;102433.91;4848330;29;45404;-82
2022/01/30 03:29:16;;;;;;;;;10.00;10.00;;;;;10.99;96.15;102433.97;4846561;29;45472;-82
2022/01/30 03:31:42;;;;;;;;;13.67;11.00;;;;;10.99;96.10;102420.66;4850505;29;47351;-82
2022/01/30 03:34:11;;;;;;;;;10.33;9.33;;;;;11.05;95.82;102431.53;4848912;29;45864;-81
2022/01/30 03:36:37;;;;;;;;;12.00;12.00;;;;;10.94;95.95;102428.44;4847716;29;45454;-80
2022/01/30 03:39:04;;;;;;;;;11.33;11.33;;;;;10.98;95.88;102422.38;4848826;29;45444;-81
2022/01/30 03:41:30;;;;;;;;;11.00;9.00;;;;;10.94;95.87;102427.53;4848802;29;45819;-80
2022/01/30 03:43:56;;;;;;;;;14.67;10.00;;;;;11.00;95.84;102431.34;4847579;29;45462;-81
2022/01/30 03:46:23;;;;;;;;;9.67;8.67;;;;;11.09;95.83;102427.22;4846780;29;45723;-80
2022/01/30 03:48:48;;;;;;;;;11.67;10.33;;;;;11.08;95.51;102422.75;4845309;29;45943;-80
2022/01/30 03:51:14;;;;;;;;;9.33;9.33;;;;;11.07;95.75;102421.84;4845496;29;46993;-80
2022/01/30 03:53:40;;;;;;;;;12.00;12.00;;;;;11.10;95.52;102415.72;4846623;29;45583;-81
2022/01/30 03:56:07;;;;;;;;;14.00;10.00;;;;;11.09;95.56;102405.91;4829559;29;45527;-81
2022/01/30 03:58:34;;;;;;;;;11.00;10.67;;;;;11.12;95.36;102416.69;4846817;29;44929;-80
2022/01/30 04:00:59;;;;;;;;;10.33;10.00;;;;;11.09;95.05;102414.84;4846844;29;46687;-81
2022/01/30 04:03:25;;;;;;;;;11.67;10.00;;;;;11.11;95.40;102422.84;4847663;29;45481;-81
2022/01/30 04:05:52;;;;;;;;;18.33;14.67;;;;;11.13;95.27;102418.50;4847930;29;45159;-81
2022/01/30 04:08:18;;;;;;;;;14.00;11.00;;;;;11.12;95.28;102424.69;4847331;29;45556;-81
2022/01/30 04:10:44;;;;;;;;;10.67;10.00;;;;;11.07;94.86;102424.53;4829351;29;47227;-81
2022/01/30 04:13:09;;;;;;;;;12.33;10.00;;;;;11.09;94.84;102429.88;4826511;29;46130;-81
2022/01/30 04:15:35;;;;;;;;;10.67;9.00;;;;;11.06;94.77;102428.00;4846647;29;45471;-81
2022/01/30 04:18:02;;;;;;;;;9.00;8.00;;;;;11.05;94.51;102430.59;4847781;29;45497;-81
2022/01/30 04:20:29;;;;;;;;;12.00;9.67;;;;;11.04;94.19;102439.47;4846852;29;47558;-81
2022/01/30 04:22:55;;;;;;;;;8.67;7.67;;;;;10.94;94.35;102432.84;4845843;29;45535;-81
2022/01/30 04:25:20;;;;;;;;;12.00;10.00;;;;;10.96;94.05;102431.16;4846050;29;45386;-81
2022/01/30 04:27:46;;;;;;;;;8.00;7.00;;;;;10.97;93.76;102433.00;4830572;29;45344;-80
2022/01/30 04:30:12;;;;;;;;;7.33;7.33;;;;;10.97;93.70;102444.53;4828627;29;46895;-81
2022/01/30 04:32:42;;;;;;;;;12.00;10.33;;;;;10.95;93.49;102437.34;4827890;29;45540;-81
2022/01/30 04:35:18;;;;;;;;;10.33;8.33;;;;;11.01;92.60;102440.25;4830596;29;45533;-80
2022/01/30 04:38:08;;;;;;;;;8.67;8.67;;;;;10.99;92.85;102440.19;4846325;29;45436;-81
2022/01/30 05:06:32;;;;;;;;;2.00;2.00;;;;;10.76;83.85;102468.53;4848148;29;45414;-81
2022/01/30 05:08:57;;;;;;;;;2.67;2.67;;;;;10.72;84.50;102463.91;4846294;29;45796;-82
2022/01/30 05:11:23;;;;;;;;;3.33;1.67;;;;;10.67;83.61;102452.19;4846693;29;46718;-79
2022/01/30 05:13:50;;;;;;;;;1.00;1.00;;;;;10.72;83.05;102471.00;4846270;29;45451;-79
2022/01/30 05:16:17;;;;;;;;;5.00;2.00;;;;;10.71;83.61;102463.88;4845735;29;45475;-80
2022/01/30 05:18:43;;;;;;;;;3.00;3.00;;;;;10.67;83.13;102469.91;4847543;29;45419;-79
2022/01/30 05:21:09;;;;;;;;;2.00;0.67;;;;;10.63;83.37;102465.31;4849999;29;45767;-81
2022/01/30 05:23:34;;;;;;;;;3.00;3.00;;;;;10.63;83.05;102476.84;4848908;29;45363;-80
2022/01/30 05:26:07;;;;;;;;;4.33;2.33;;;;;10.63;80.05;102470.63;4849971;29;45266;-80
2022/01/30 05:28:33;;;;;;;;;1.67;1.67;;;;;10.60;78.71;102480.31;4848779;29;45392;-81
2022/01/30 05:30:59;;;;;;;;;4.00;2.67;;;;;10.57;82.46;102468.63;4834251;29;47520;-81
2022/01/30 05:33:25;;;;;;;;;1.33;1.33;;;;;10.60;82.13;102490.94;4851929;29;45459;-79
2022/01/30 05:35:51;;;;;;;;;2.33;2.33;;;;;10.58;81.67;102494.38;4850237;29;45492;-81
2022/01/30 05:38:18;;;;;;;;;4.00;3.67;;;;;10.57;81.45;102477.50;4831481;29;45406;-81
2022/01/30 05:40:44;;;;;;;;;2.33;1.67;;;;;10.57;82.06;102482.81;4848641;29;45468;-80
2022/01/30 05:43:10;;;;;;;;;1.00;1.00;;;;;10.59;81.42;102488.22;4848841;29;45732;-81
2022/01/30 05:45:42;;;;;;;;;3.33;1.00;;;;;10.60;81.99;102482.97;4848892;29;45514;-80
2022/01/30 05:48:10;;;;;;;;;1.67;1.67;;;;;10.65;82.03;102490.22;4833020;29;45757;-80
2022/01/30 05:50:36;;;;;;;;;3.67;3.00;;;;;10.63;81.69;102489.25;4838845;29;47265;-80
2022/01/30 05:53:02;;;;;;;;;3.67;2.00;;;;;10.68;81.99;102493.00;4838622;29;45453;-81
2022/01/30 05:55:30;;;;;;;;;3.33;1.33;;;;;10.69;81.87;102489.53;4838961;29;45409;-80
2022/01/30 05:57:55;;;;;;;;;1.00;1.00;;;;;10.69;80.49;102492.19;4839715;29;45387;-81
2022/01/30 06:00:22;;;;;;;;;3.33;2.00;;;;;10.66;81.18;102494.69;4854324;29;45354;-81
2022/01/30 06:02:48;;;;;;;;;4.00;2.67;;;;;10.66;81.51;102492.03;4851345;29;45542;-81
2022/01/30 06:05:16;;;;;;;;;1.33;1.33;;;;;10.67;81.32;102496.53;4832568;29;45470;-80
2022/01/30 06:07:49;;;;;;;;;4.00;4.00;;;;;10.63;80.69;102503.47;4831175;29;45502;-81
2022/01/30 06:10:14;;;;;;;;;3.33;3.00;;;;;10.59;80.27;102505.09;4847909;29;45316;-81
2022/01/30 06:12:40;;;;;;;;;2.00;2.00;;;;;10.54;80.34;102498.69;4831188;29;45754;-80
2022/01/30 06:15:06;;;;;;;;;3.67;2.00;;;;;10.48;79.39;102495.72;4847978;29;45461;-81
2022/01/30 06:17:31;;;;;;;;;4.00;3.00;;;;;10.48;80.16;102510.78;4850674;29;45498;-80
2022/01/30 06:19:57;;;;;;;;;4.00;2.00;;;;;10.41;80.18;102510.53;4820985;29;47507;-80
2022/01/30 06:22:22;;;;;;;;;4.67;4.67;;;;;10.39;80.41;102517.53;4831137;29;45470;-80
2022/01/30 06:24:48;;;;;;;;;3.00;3.00;;;;;10.39;81.12;102519.28;4830995;29;44829;-80
2022/01/30 06:27:13;;;;;;;;;5.33;4.00;;;;;10.38;80.79;102514.78;4829631;29;45389;-81
2022/01/30 06:29:38;;;;;;;;;1.00;1.00;;;;;10.40;79.73;102518.44;4830203;29;46424;-80
2022/01/30 06:32:04;;;;;;;;;3.67;3.00;;;;;10.37;80.20;102521.88;4829424;29;45434;-80
2022/01/30 06:34:30;;;;;;;;;3.00;3.00;;;;;10.29;80.21;102525.00;4829282;29;45411;-81
2022/01/30 06:36:55;;;;;;;;;2.00;2.00;;;;;10.33;79.97;102532.31;4830889;29;45355;-80
2022/01/30 06:39:21;;;;;;;;;4.00;3.00;;;;;10.29;78.85;102528.56;4813171;29;48192;-81
2022/01/30 06:41:47;;;;;;;;;3.00;2.00;;;;;10.23;79.88;102524.75;4828547;29;45421;-80
2022/01/30 06:44:12;;;;;;;;;1.00;1.00;;;;;10.18;79.32;102522.78;4831379;29;45601;-81
2022/01/30 06:46:38;;;;;;;;;2.00;2.00;;;;;10.21;80.00;102522.91;4832305;29;45469;-81
2022/01/30 06:49:04;;;;;;;;;2.00;2.00;;;;;10.14;79.85;102512.88;4832433;29;45980;-81
2022/01/30 06:51:30;;;;;;;;;3.00;3.00;;;;;10.20;79.83;102520.22;4833976;29;45881;-80
2022/01/30 06:53:56;;;;;;;;;3.00;3.00;;;;;10.15;79.85;102524.41;4832726;29;45463;-82
2022/01/30 06:56:21;;;;;;;;;2.67;2.67;;;;;10.16;79.79;102521.81;4833878;29;45807;-82
2022/01/30 06:58:56;;;;;;;;;2.00;2.00;;;;;10.15;79.88;102517.31;4833351;29;47930;-83
2022/01/30 07:01:25;;;;;;;;;5.00;3.00;;;;;10.16;79.69;102529.78;4831670;29;45525;-80
2022/01/30 07:03:52;;;;;;;;;7.00;4.33;;;;;10.14;80.01;102531.47;4815861;29;45493;-83
2022/01/30 07:06:18;;;;;;;;;6.67;3.67;;;;;10.12;80.17;102530.50;4831412;29;45583;-82
2022/01/30 07:08:43;;;;;;;;;3.33;3.33;;;;;10.05;80.05;102524.84;4828412;29;45543;-81
2022/01/30 07:11:09;;;;;;;;;1.00;1.00;;;;;10.01;79.05;102523.78;4827491;29;45772;-81
2022/01/30 07:13:34;;;;;;;;;2.00;2.00;;;;;9.88;80.04;102534.72;4829887;29;45796;-81
2022/01/30 07:19:21;;;;;;;;;3.33;3.33;;;;;9.76;80.90;102541.28;4829203;29;45368;-81
2022/01/30 07:21:47;;;;;;;;;5.00;2.00;;;;;9.72;81.22;102544.63;4812116;29;45938;-81
2022/01/30 07:24:13;;;;;;;;;4.00;4.00;;;;;9.64;81.10;102538.03;4811698;29;45542;-80
2022/01/30 07:26:44;;;;;;;;;4.00;3.00;;;;;9.63;80.66;102553.91;4829573;29;45343;-80
2022/01/30 07:29:10;;;;;;;;;3.00;2.00;;;;;9.53;81.40;102549.91;4829291;29;45675;-81
2022/01/30 07:31:36;;;;;;;;;6.67;3.67;;;;;9.54;81.47;102570.31;4827520;29;45727;-80
2022/01/30 07:34:02;;;;;;;;;4.00;3.67;;;;;9.50;81.00;102565.72;4811458;29;45434;-81
2022/01/30 07:36:28;;;;;;;;;4.33;2.00;;;;;9.44;81.02;102576.03;4827964;29;45584;-80
2022/01/30 07:38:55;;;;;;;;;2.00;2.00;;;;;9.49;80.47;102579.81;4829045;29;46072;-81
2022/01/30 07:41:21;;;;;;;;;2.00;2.00;;;;;9.45;81.21;102577.84;4828563;29;45524;-80
2022/01/30 07:43:47;;;;;;;;;7.00;7.00;;;;;9.43;81.13;102574.19;4812807;29;45514;-81
2022/01/30 07:46:13;;;;;;;;;3.33;3.00;;;;;9.52;81.39;102577.31;4813494;29;45470;-82
2022/01/30 07:48:38;;;;;;;;;6.00;2.33;;;;;9.54;80.86;102586.25;4828392;29;48167;-81
2022/01/30 07:51:05;;;;;;;;;6.33;3.00;;;;;9.55;81.10;102582.75;4829321;29;45428;-79
2022/01/30 07:53:31;;;;;;;;;1.67;1.00;;;;;9.55;80.97;102578.38;4829638;29;45278;-82
2022/01/30 07:55:57;;;;;;;;;6.67;3.33;;;;;9.64;81.24;102591.19;4831207;29;45500;-82
2022/01/30 07:58:22;;;;;;;;;3.67;3.67;;;;;9.71;80.80;102600.34;4829749;29;47002;-82
2022/01/30 08:00:48;;;;;;;;;3.00;3.00;;;;;9.73;80.58;102591.59;4813629;29;45495;-82
2022/01/30 08:03:13;;;;;;;;;3.33;2.67;;;;;9.68;80.34;102587.81;4830109;29;45449;-80
2022/01/30 08:05:39;;;;;;;;;2.67;2.67;;;;;9.70;80.39;102591.47;4831527;29;45782;-81
2022/01/30 08:08:05;;;;;;;;;6.00;3.33;;;;;9.69;80.29;102594.94;4827903;29;45391;-81
2022/01/30 08:10:33;;;;;;;;;7.67;5.33;;;;;9.75;80.66;102600.53;4811691;29;45500;-80
2022/01/30 08:12:59;;;;;;;;;3.67;3.67;;;;;9.74;79.79;102612.03;4828409;29;45458;-81
2022/01/30 08:15:24;;;;;;;;;2.33;2.33;;;;;9.73;79.39;102609.28;4810797;29;45394;-81
2022/01/30 08:17:50;;;;;;;;;4.00;3.00;;;;;9.72;79.86;102605.72;4828179;29;45819;-81
2022/01/30 08:20:15;;;;;;;;;6.00;4.00;;;;;9.65;79.42;102597.38;4814311;29;45748;-79
2022/01/30 08:22:47;;;;;;;;;6.00;5.00;;;;;9.73;79.13;102609.28;4829175;29;45401;-81
2022/01/30 08:25:12;;;;;;;;;3.67;2.00;;;;;9.57;78.20;102603.25;4827367;29;45592;-81
2022/01/30 08:27:38;;;;;;;;;4.00;3.00;;;;;9.54;79.34;102604.84;4825868;29;47518;-80
2022/01/30 08:30:05;;;;;;;;;8.00;4.67;;;;;9.48;79.37;102592.19;4811758;29;45355;-80
2022/01/30 08:32:30;;;;;;;;;3.67;3.00;;;;;9.50;78.11;102602.88;4829775;29;45410;-80
2022/01/30 08:34:57;;;;;;;;;3.00;3.00;;;;;9.54;79.04;102603.09;4831063;29;45313;-79
2022/01/30 08:37:22;;;;;;;;;3.00;3.00;;;;;9.52;79.42;102598.56;4830740;29;46809;-81
2022/01/30 08:39:48;;;;;;;;;5.00;5.00;;;;;9.49;79.29;102585.13;4815604;29;44831;-82
2022/01/30 08:42:13;;;;;;;;;5.33;5.33;;;;;9.52;79.43;102591.50;4815692;29;45856;-81
2022/01/30 08:44:38;;;;;;;;;4.00;3.00;;;;;9.54;79.23;102594.22;4831085;29;45798;-81
2022/01/30 08:47:05;;;;;;;;;3.33;3.33;;;;;9.55;79.58;102586.34;4831033;29;45469;-81
2022/01/30 08:49:30;;;;;;;;;4.00;2.67;;;;;9.56;79.75;102580.19;4811925;29;45463;-82
2022/01/30 08:51:56;;;;;;;;;4.00;4.00;;;;;9.63;79.36;102584.03;4826807;29;45427;-81
2022/01/30 08:54:22;;;;;;;;;4.00;4.00;;;;;9.75;79.47;102591.66;4827259;29;45646;-81
2022/01/30 08:56:47;;;;;;;;;6.33;4.67;;;;;9.77;78.52;102597.97;4827044;29;45984;-81
2022/01/30 08:59:13;;;;;;;;;3.67;3.67;;;;;9.75;78.51;102594.31;4811066;29;45923;-81
2022/01/30 09:01:40;;;;;;;;;4.67;3.33;;;;;9.76;78.54;102601.47;4829805;29;45494;-81
2022/01/30 09:04:06;;;;;;;;;2.00;2.00;;;;;9.74;77.65;102608.47;4812630;29;44786;-80
2022/01/30 09:06:31;;;;;;;;;2.33;0.33;;;;;9.64;77.50;102591.19;4829211;29;45524;-81
2022/01/30 09:08:59;;;;;;;;;3.00;2.33;;;;;9.75;77.79;102611.16;4829902;29;44897;-81
2022/01/30 09:11:25;;;;;;;;;3.00;2.00;;;;;9.68;77.34;102598.44;4813423;29;45916;-80
2022/01/30 09:13:50;;;;;;;;;3.00;3.00;;;;;9.59;76.14;102595.34;4813631;29;45346;-82
2022/01/30 09:16:16;;;;;;;;;1.00;1.00;;;;;9.61;76.18;102606.94;4830199;29;44937;-81
2022/01/30 09:18:41;;;;;;;;;2.33;2.33;;;;;9.53;76.12;102611.94;4828119;29;45346;-81
2022/01/30 09:21:07;;;;;;;;;2.33;2.00;;;;;9.50;76.80;102614.41;4839333;29;45426;-81
2022/01/30 09:23:33;;;;;;;;;3.00;3.00;;;;;9.43;77.46;102599.00;4835527;29;45441;-81
2022/01/30 09:25:58;;;;;;;;;3.33;3.33;;;;;9.55;77.05;102612.91;4851753;29;45710;-81
2022/01/30 09:28:24;;;;;;;;;2.33;2.00;;;;;9.55;77.36;102606.66;4850113;29;45508;-81
2022/01/30 09:30:49;;;;;;;;;4.67;4.00;;;;;9.61;77.34;102610.53;4851325;29;45944;-81
2022/01/30 09:37:17;;;;;;;;;1.33;1.00;;;;;9.80;77.21;102614.06;4850046;29;45540;-80
2022/01/30 09:39:43;;;;;;;;;3.33;3.00;;;;;9.78;77.32;102616.66;4844763;29;45432;-80
2022/01/30 09:42:08;;;;;;;;;3.00;3.00;;;;;9.81;77.81;102616.78;4844982;29;45428;-81
2022/01/30 09:44:39;;;;;;;;;2.33;2.33;;;;;9.81;75.68;102613.22;4842824;29;45773;-81
2022/01/30 09:47:10;;;;;;;;;2.67;2.67;;;;;9.78;76.92;102616.66;4843771;29;45536;-80
2022/01/30 09:49:39;;;;;;;;;2.67;2.67;;;;;9.84;76.73;102623.06;4843216;29;45406;-81
2022/01/30 09:52:07;;;;;;;;;7.67;4.00;;;;;9.86;77.09;102619.69;4828822;29;45536;-82
2022/01/30 09:54:33;;;;;;;;;2.67;2.67;;;;;9.91;76.56;102622.53;4846177;29;45454;-80
2022/01/30 09:56:59;;;;;;;;;4.00;2.00;;;;;9.92;76.68;102614.66;4826712;29;47212;-82
2022/01/30 09:59:24;;;;;;;;;4.00;3.67;;;;;9.98;76.97;102614.94;4845301;29;45448;-82
2022/01/30 10:01:50;;;;;;;;;6.00;4.00;;;;;10.02;77.42;102608.00;4829208;29;45348;-81
2022/01/30 10:04:15;;;;;;;;;2.67;2.67;;;;;10.06;75.16;102606.38;4846471;29;45318;-82
2022/01/30 10:07:14;;;;;;;;;2.67;2.33;;;;;10.17;75.97;102619.34;4832080;29;47524;-82
2022/01/30 10:09:45;;;;;;;;;5.33;3.00;;;;;10.19;75.16;102622.97;4847416;29;45751;-82
2022/01/30 10:15:04;;;;;;;;;6.67;6.00;;;;;10.18;76.38;102621.16;4848346;29;45442;-82
2022/01/30 10:17:49;;;;;;;;;8.00;7.00;;;;;10.20;76.41;102619.50;4844140;29;47504;-81
2022/01/30 10:20:19;;;;;;;;;3.33;2.00;;;;;10.18;75.95;102621.16;4833547;29;45324;-81
2022/01/30 10:22:59;;;;;;;;;4.67;2.00;;;;;10.18;76.00;102612.28;4835261;29;45787;-81
2022/01/30 10:25:27;;;;;;;;;3.33;3.00;;;;;10.21;75.50;102623.94;4818954;29;45395;-81
2022/01/30 10:28:08;;;;;;;;;4.00;4.00;;;;;10.23;74.26;102617.81;4817998;29;48109;-82
2022/01/30 10:30:48;;;;;;;;;6.67;5.00;;;;;10.16;74.77;102609.56;4817729;29;45683;-82
2022/01/30 10:33:15;;;;;;;;;3.00;1.67;;;;;10.14;75.81;102619.22;4815022;29;45406;-81
2022/01/30 10:35:52;;;;;;;;;6.00;6.00;;;;;10.23;75.60;102613.41;4830034;29;45541;-82
2022/01/30 10:38:23;;;;;;;;;7.33;6.00;;;;;10.18;75.63;102602.56;4829264;29;45466;-81
2022/01/30 10:41:12;;;;;;;;;9.33;5.67;;;;;10.30;75.41;102606.63;4829240;29;45482;-80
2022/01/30 10:43:53;;;;;;;;;2.67;2.00;;;;;10.34;75.24;102609.53;4811452;29;45665;-80
2022/01/30 10:46:30;;;;;;;;;6.67;5.00;;;;;10.36;75.37;102607.84;4829015;29;45549;-81
2022/01/30 10:49:07;;;;;;;;;10.00;8.00;;;;;10.41;74.32;102605.38;4811813;29;47186;-81
2022/01/30 10:51:33;;;;;;;;;8.00;7.00;;;;;10.41;75.63;102594.75;4829969;29;45443;-80
2022/01/30 10:54:09;;;;;;;;;7.67;6.00;;;;;10.51;74.71;102607.59;4835156;29;45425;-81
2022/01/30 10:56:36;;;;;;;;;7.67;6.67;;;;;10.41;74.45;102603.63;4834480;29;45738;-81
2022/01/30 10:59:15;;;;;;;;;2.67;2.67;;;;;10.44;74.96;102605.50;4818768;29;46849;-81
2022/01/30 11:01:45;;;;;;;;;4.00;4.00;;;;;10.45;74.96;102604.66;4818424;29;45410;-82
2022/01/30 11:04:23;;;;;;;;;5.00;2.67;;;;;10.52;75.01;102604.13;4819345;29;45467;-81
2022/01/30 11:06:49;;;;;;;;;3.00;3.00;;;;;10.54;74.39;102601.50;4818403;29;45526;-81
2022/01/30 11:09:22;;;;;;;;;8.33;5.33;;;;;10.54;71.43;102586.47;4829228;29;46018;-81
2022/01/30 11:11:54;;;;;;;;;3.67;3.67;;;;;10.49;71.73;102603.06;4827757;29;45827;-81
2022/01/30 11:14:23;;;;;;;;;6.00;6.00;;;;;10.45;71.90;102590.47;4832071;29;45484;-81
2022/01/30 11:16:57;;;;;;;;;7.33;5.67;;;;;10.55;70.98;102593.59;4812372;29;45494;-80
2022/01/30 11:19:26;;;;;;;;;6.67;5.00;;;;;10.66;70.87;102590.50;4810206;29;47138;-81
2022/01/30 11:21:55;;;;;;;;;8.00;6.33;;;;;10.73;70.75;102593.50;4827618;29;45516;-81
2022/01/30 11:24:24;;;;;;;;;7.33;5.00;;;;;10.78;68.08;102585.69;4828578;29;45820;-81
2022/01/30 11:26:50;;;;;;;;;7.00;5.33;;;;;10.68;68.63;102572.84;4840258;29;44808;-81
2022/01/30 11:29:20;;;;;;;;;6.33;6.33;;;;;10.75;69.04;102581.16;4845989;29;46609;-81
2022/01/30 11:31:46;;;;;;;;;8.67;6.33;;;;;10.77;68.20;102567.91;4844656;29;45803;-81
2022/01/30 11:34:12;;;;;;;;;5.33;5.00;;;;;10.81;66.46;102565.44;4845676;29;45443;-80
2022/01/30 11:36:40;;;;;;;;;4.67;4.67;;;;;10.79;66.04;102566.22;4846848;29;45558;-81
2022/01/30 11:39:07;;;;;;;;;5.33;3.67;;;;;10.77;65.51;102567.91;4844225;29;48392;-81
2022/01/30 11:41:34;;;;;;;;;4.00;4.00;;;;;10.70;65.22;102561.41;4846888;29;45366;-81
2022/01/30 11:44:35;;;;;;;;;8.00;6.33;;;;;10.84;67.33;102556.66;4847847;29;45419;-82
2022/01/30 11:47:03;;;;;;;;;6.00;5.00;;;;;10.93;67.38;102554.41;4771459;29;45578;-81
2022/01/30 11:50:01;;;;;;;;;7.67;7.67;;;;;11.11;67.78;102548.00;4770648;29;46181;-81
2022/01/30 11:52:49;;;;;;;;;12.33;8.00;;;;;11.18;65.40;102543.00;4771150;29;45451;-81
2022/01/30 11:55:41;;;;;;;;;10.67;7.67;;;;;11.27;67.11;102553.13;4770184;29;45662;-81
2022/01/30 11:58:07;;;;;;;;;10.33;8.33;;;;;11.34;66.83;102540.97;4772048;29;45431;-80
2022/01/30 12:00:47;;;;;;;;;12.00;9.00;;;;;11.35;65.31;102534.78;4771588;29;47325;-81
2022/01/30 12:03:31;;;;;;;;;9.33;7.00;;;;;11.47;65.42;102529.91;4771463;29;45448;-81
2022/01/30 12:06:19;;;;;;;;;8.00;7.33;;;;;11.57;65.11;102528.53;4771717;29;45466;-81
2022/01/30 12:08:46;;;;;;;;;7.67;7.67;;;;;11.60;65.66;102528.66;4771565;29;45401;-81
2022/01/30 12:11:36;;;;;;;;;5.00;4.00;;;;;11.68;65.39;102527.19;4770684;29;47069;-81
2022/01/30 12:14:11;;;;;;;;;6.00;4.67;;;;;11.66;65.55;102523.56;4771496;29;45428;-80
2022/01/30 12:16:44;;;;;;;;;9.00;5.00;;;;;11.66;64.98;102512.91;4759903;29;45967;-80
2022/01/30 12:19:16;;;;;;;;;6.67;6.33;;;;;11.60;65.41;102500.25;4771669;29;45595;-81
2022/01/30 12:21:42;;;;;;;;;9.33;7.00;;;;;11.65;63.53;102508.41;4815128;29;47934;-80
2022/01/30 12:24:25;;;;;;;;;9.33;5.00;;;;;11.53;63.67;102491.94;4830613;29;45484;-83
2022/01/30 12:27:00;;;;;;;;;2.00;2.00;;;;;11.45;64.44;102506.75;4832496;29;45488;-82
2022/01/30 12:29:43;;;;;;;;;5.67;5.67;;;;;11.24;63.08;102494.41;4815077;29;45401;-82
2022/01/30 12:32:22;;;;;;;;;7.00;6.33;;;;;11.26;64.38;102492.72;4829560;29;47306;-80
2022/01/30 12:34:56;;;;;;;;;7.33;6.33;;;;;11.26;64.64;102479.38;4831622;29;45745;-81
2022/01/30 12:37:28;;;;;;;;;7.67;6.33;;;;;11.41;64.16;102485.31;4814516;29;45457;-81
2022/01/30 12:39:54;;;;;;;;;12.33;8.67;;;;;11.36;64.36;102465.56;4813939;29;44800;-81